Time;durP1;ratioP1;P1;durP2;ratioP2;P2;SDS_P1;SDS_P2;PMS_P1;PMS_P2;Temp;Humidity;BMP_temperature;BMP_pressure;BME280_temperature;BME280_humidity;BME280_pressure;Samples;Min_cycle;Max_cycle;Signal;HPM_P1;HPM_P2
2022/05/09 00:01:29;;;;;;;4.70;2.55;;;;;;;10.81;78.93;101675.28;6258482;22;20141;-69
2022/05/09 00:04:33;;;;;;;5.07;2.42;;;;;;;10.80;79.11;101672.75;6258646;22;20565;-69
2022/05/09 00:07:43;;;;;;;5.35;2.20;;;;;;;10.77;79.01;101668.47;6277243;22;20019;-69
2022/05/09 00:10:47;;;;;;;6.90;2.55;;;;;;;10.69;78.73;101665.28;6277220;22;20099;-69
2022/05/09 00:13:50;;;;;;;7.18;2.85;;;;;;;10.58;79.40;101662.16;6277000;22;20497;-69
2022/05/09 00:16:56;;;;;;;5.43;3.00;;;;;;;10.68;78.93;101668.78;6276778;22;20022;-69
2022/05/09 00:19:59;;;;;;;6.72;2.40;;;;;;;10.89;78.82;101664.56;6276938;22;20106;-69
2022/05/09 00:23:03;;;;;;;11.65;2.40;;;;;;;11.03;77.32;101658.84;6277254;22;20401;-69
2022/05/09 00:26:07;;;;;;;7.25;2.63;;;;;;;10.81;77.66;101663.97;6276936;22;20077;-68
2022/05/09 00:29:14;;;;;;;4.28;2.55;;;;;;;10.57;78.99;101660.47;6277185;22;20081;-68
2022/05/09 00:32:19;;;;;;;8.27;2.80;;;;;;;10.46;79.29;101655.56;6276920;22;20077;-68
2022/05/09 00:35:22;;;;;;;7.15;3.17;;;;;;;10.35;79.57;101661.16;6277073;22;20490;-68
2022/05/09 00:38:26;;;;;;;10.23;3.97;;;;;;;10.40;79.76;101656.66;6277341;22;20031;-69
2022/05/09 00:41:31;;;;;;;8.93;3.00;;;;;;;10.41;79.87;101653.13;6276859;22;20026;-68
2022/05/09 00:44:35;;;;;;;5.80;2.55;;;;;;;10.68;78.66;101668.78;6276749;22;20072;-68
2022/05/09 00:47:39;;;;;;;4.40;2.47;;;;;;;10.68;77.61;101660.94;6276794;22;20072;-68
2022/05/09 00:50:43;;;;;;;5.93;2.50;;;;;;;10.39;78.72;101668.00;6276917;22;20077;-68
2022/05/09 00:53:48;;;;;;;4.13;2.35;;;;;;;10.33;79.13;101655.13;6276849;22;20046;-69
2022/05/09 00:57:14;;;;;;;6.22;2.67;;;;;;;10.27;78.87;101665.78;6276844;22;20026;-69
2022/05/09 01:00:20;;;;;;;5.40;2.70;;;;;;;10.21;79.12;101650.25;6257794;22;20054;-69
2022/05/09 01:03:35;;;;;;;6.85;3.47;;;;;;;10.16;80.13;101652.19;6276759;22;20070;-69
2022/05/09 01:06:39;;;;;;;9.10;3.05;;;;;;;10.36;79.20;101657.63;6257881;22;20402;-69
2022/05/09 01:09:42;;;;;;;5.03;2.38;;;;;;;10.20;78.47;101656.41;6276716;22;20022;-69
2022/05/09 01:12:46;;;;;;;4.32;2.22;;;;;;;10.10;78.79;101663.69;6276441;22;20051;-69
2022/05/09 01:15:53;;;;;;;5.82;2.40;;;;;;;10.10;78.87;101665.47;6276480;22;20401;-69
2022/05/09 01:19:00;;;;;;;3.88;2.30;;;;;;;10.27;78.79;101665.78;6276623;22;20026;-70
2022/05/09 01:22:16;;;;;;;4.95;2.30;;;;;;;10.35;78.10;101665.56;6276945;22;20110;-69
2022/05/09 01:25:20;;;;;;;4.95;2.10;;;;;;;10.35;77.38;101657.72;6276655;22;20022;-70
2022/05/09 01:28:23;;;;;;;5.47;2.17;;;;;;;10.12;78.25;101661.06;6276413;22;20405;-69
2022/05/09 01:31:27;;;;;;;5.68;2.42;;;;;;;9.93;78.85;101661.63;6276492;22;20022;-70
2022/05/09 01:34:30;;;;;;;6.13;2.70;;;;;;;9.82;79.17;101655.00;6276873;22;20027;-70
2022/05/09 01:37:36;;;;;;;6.32;2.30;;;;;;;9.82;79.61;101655.88;6276273;22;20023;-69
2022/05/09 01:40:40;;;;;;;5.18;1.90;;;;;;;9.81;79.80;101648.09;6276128;22;20022;-69
2022/05/09 01:43:50;;;;;;;5.45;2.03;;;;;;;9.91;78.92;101650.34;6276076;22;20051;-68
2022/05/09 01:50:15;;;;;;;4.53;1.77;;;;;;;9.79;78.71;101642.91;6276320;22;20031;-69
2022/05/09 01:53:19;;;;;;;4.65;2.00;;;;;;;9.68;79.34;101648.47;6276197;22;20072;-68
2022/05/09 01:56:30;;;;;;;4.72;2.42;;;;;;;9.66;79.65;101652.88;6276169;22;20108;-69
2022/05/09 01:59:38;;;;;;;7.13;2.10;;;;;;;9.54;79.57;101646.28;6276106;22;20027;-68
2022/05/09 02:02:42;;;;;;;4.63;2.28;;;;;;;9.51;79.81;101650.75;6276164;22;20031;-68
2022/05/09 02:05:46;;;;;;;7.80;3.25;;;;;;;9.45;79.99;101649.16;6276099;22;20065;-68
2022/05/09 02:08:49;;;;;;;3.95;2.22;;;;;;;9.51;79.87;101648.13;6276256;22;20026;-68
2022/05/09 02:11:53;;;;;;;3.83;2.40;;;;;;;9.52;79.57;101655.91;6275817;22;20361;-68
2022/05/09 02:14:57;;;;;;;6.70;1.98;;;;;;;9.68;79.22;101652.84;6276049;22;20023;-68
2022/05/09 02:18:01;;;;;;;7.03;3.53;;;;;;;9.64;78.89;101651.22;6275637;22;20081;-68
2022/05/09 02:21:05;;;;;;;6.68;1.90;;;;;;;9.48;78.97;101656.91;6257304;22;20351;-68
2022/05/09 02:24:08;;;;;;;5.13;2.30;;;;;;;9.44;79.54;101655.25;6276090;22;20023;-68
2022/05/09 02:27:12;;;;;;;3.85;2.10;;;;;;;9.62;79.07;101658.25;6275393;22;20388;-68
2022/05/09 02:30:18;;;;;;;5.45;2.30;;;;;;;9.54;78.88;101655.88;6275884;22;20422;-68
2022/05/09 02:33:22;;;;;;;8.57;2.58;;;;;;;9.36;78.88;101651.19;6275912;22;20085;-67
2022/05/09 02:36:26;;;;;;;6.47;2.10;;;;;;;9.25;79.67;101654.97;6276098;22;20026;-69
2022/05/09 02:39:29;;;;;;;5.78;2.45;;;;;;;9.30;79.80;101658.28;6275919;22;20152;-68
2022/05/09 02:42:34;;;;;;;3.60;2.10;;;;;;;9.50;78.89;101657.69;6275555;22;20512;-68
2022/05/09 02:45:39;;;;;;;7.32;2.40;;;;;;;9.43;78.66;101653.56;6275692;22;20049;-68
2022/05/09 02:48:44;;;;;;;4.00;2.35;;;;;;;9.28;79.61;101659.22;6275544;22;20023;-68
2022/05/09 02:51:51;;;;;;;4.15;2.58;;;;;;;9.31;79.07;101653.91;6256982;22;20027;-68
2022/05/09 02:54:54;;;;;;;5.80;2.25;;;;;;;9.30;79.31;101657.44;6275532;22;20023;-69
2022/05/09 02:58:00;;;;;;;5.97;2.40;;;;;;;9.29;79.02;101658.34;6275497;22;20347;-69
2022/05/09 03:01:04;;;;;;;9.27;2.80;;;;;;;9.28;78.92;101656.63;6275739;22;20054;-69
2022/05/09 03:04:53;;;;;;;4.80;2.22;;;;;;;9.29;79.15;101655.72;6275693;22;20025;-69
2022/05/09 03:07:35;;;;;;;5.97;2.28;;;;;;;9.40;78.48;101653.66;6275599;22;20526;-69
2022/05/09 03:10:45;;;;;;;4.95;2.95;;;;;;;9.14;79.38;101662.22;6275223;22;20165;-69
2022/05/09 03:13:49;;;;;;;4.43;2.10;;;;;;;9.03;79.48;101659.94;6275627;22;20402;-69
2022/05/09 03:16:53;;;;;;;5.30;2.30;;;;;;;9.03;79.80;101654.72;6275192;22;20488;-69
2022/05/09 03:19:57;;;;;;;6.63;2.22;;;;;;;9.03;79.51;101654.72;6275597;22;20023;-69
2022/05/09 03:23:02;;;;;;;6.55;2.08;;;;;;;9.03;79.19;101665.16;6275512;22;20462;-69
2022/05/09 03:26:14;;;;;;;9.77;2.20;;;;;;;8.86;79.66;101659.53;6275101;22;20081;-70
2022/05/09 03:29:24;;;;;;;3.53;2.17;;;;;;;8.79;80.08;101661.44;6275517;22;20397;-70
2022/05/09 03:32:27;;;;;;;4.40;2.13;;;;;;;8.70;80.60;101653.84;6275519;22;20022;-70
2022/05/09 03:35:30;;;;;;;;;;;;;;;8.74;80.51;101652.91;6276423;22;20027;-69
2022/05/09 03:38:38;;;;;;;4.60;2.17;;;;;;;8.71;79.98;101663.41;6275362;22;20354;-70
2022/05/09 03:41:42;;;;;;;5.30;2.00;;;;;;;8.84;80.07;101656.97;6275315;22;20065;-69
2022/05/09 03:44:46;;;;;;;6.28;2.42;;;;;;;9.01;78.65;101656.50;6275551;22;20077;-69
2022/05/09 03:47:49;;;;;;;4.35;1.88;;;;;;;8.78;79.30;101669.31;6275467;22;20019;-69
2022/05/09 03:50:53;;;;;;;4.40;2.10;;;;;;;8.69;79.92;101664.34;6275378;22;20079;-71
2022/05/09 03:53:57;;;;;;;3.65;2.00;;;;;;;8.76;79.52;101665.88;6274931;22;20049;-69
2022/05/09 03:57:02;;;;;;;4.28;1.95;;;;;;;8.66;80.19;101669.63;6256561;22;20142;-69
2022/05/09 04:00:08;;;;;;;5.13;1.75;;;;;;;8.67;79.61;101674.81;6275351;22;20374;-69
2022/05/09 04:03:19;;;;;;;4.47;1.73;;;;;;;8.70;79.50;101666.91;6275368;22;20053;-69
2022/05/09 04:06:26;;;;;;;10.68;3.03;;;;;;;8.72;79.63;101662.50;6269474;22;20101;-69
2022/05/09 04:09:32;;;;;;;3.42;1.67;;;;;;;8.67;79.72;101676.56;6268102;22;20085;-69
2022/05/09 04:12:35;;;;;;;5.93;2.13;;;;;;;8.64;79.62;101676.63;6269648;22;20472;-69
2022/05/09 04:19:06;;;;;;;3.85;1.75;;;;;;;8.73;79.78;101677.25;6268568;22;20027;-69
2022/05/09 04:22:10;;;;;;;4.78;2.03;;;;;;;8.84;78.97;101671.78;6269101;22;20082;-69
2022/05/09 04:25:15;;;;;;;6.70;1.95;;;;;;;8.73;79.39;101676.41;6270698;22;20466;-69
2022/05/09 04:28:22;;;;;;;7.13;1.98;;;;;;;8.70;79.37;101686.91;6271053;22;20054;-69
2022/05/09 04:31:29;;;;;;;4.45;1.70;;;;;;;8.71;79.40;101683.41;6272113;22;20025;-69
2022/05/09 04:34:33;;;;;;;8.38;1.98;;;;;;;8.73;79.68;101684.22;6273663;22;20074;-69
2022/05/09 04:37:37;;;;;;;5.10;2.40;;;;;;;8.75;79.42;101690.25;6273175;22;20101;-69
2022/05/09 04:40:42;;;;;;;4.05;2.38;;;;;;;8.73;79.52;101692.03;6275013;22;20046;-69
2022/05/09 04:43:47;;;;;;;4.18;1.95;;;;;;;8.87;79.10;101679.50;6276934;22;20051;-69
2022/05/09 04:46:51;;;;;;;8.25;3.47;;;;;;;8.90;79.10;101678.56;6276992;22;20512;-69
2022/05/09 04:49:55;;;;;;;33.33;28.77;;;;;;;8.83;78.86;101683.94;6276989;22;20519;-69
2022/05/09 04:53:01;;;;;;;13.52;11.90;;;;;;;8.85;79.21;101689.13;6275826;22;20022;-69
2022/05/09 04:56:06;;;;;;;6.22;2.97;;;;;;;8.94;78.60;101691.50;6256922;22;20085;-69
2022/05/09 04:59:11;;;;;;;4.20;1.95;;;;;;;8.80;79.50;101689.22;6276637;22;20023;-69
2022/05/09 05:02:17;;;;;;;4.72;1.95;;;;;;;8.91;79.53;101686.34;6276859;22;20026;-69
2022/05/09 05:05:21;;;;;;;6.85;2.35;;;;;;;8.80;80.29;101698.81;6276696;22;20336;-69
2022/05/09 05:08:30;;;;;;;6.57;2.20;;;;;;;8.83;80.01;101683.06;6255764;22;20026;-69
2022/05/09 05:11:36;;;;;;;4.88;1.88;;;;;;;8.90;80.11;101684.63;6257259;22;20027;-69
2022/05/09 05:14:40;;;;;;;5.03;2.50;;;;;;;8.98;80.39;101689.66;6270768;22;20038;-69
2022/05/09 05:17:45;;;;;;;3.78;1.50;;;;;;;9.11;79.91;101693.63;6249877;22;20027;-69
2022/05/09 05:20:51;;;;;;;4.72;1.98;;;;;;;9.39;78.47;101687.66;6271734;22;20030;-68
2022/05/09 05:23:56;;;;;;;6.90;1.63;;;;;;;9.38;78.15;101689.41;6272073;22;20026;-69
2022/05/09 05:27:04;;;;;;;4.22;1.50;;;;;;;9.57;77.39;101691.47;6270153;22;20066;-69
2022/05/09 05:30:12;;;;;;;4.20;1.73;;;;;;;9.50;77.72;101693.41;6270785;22;20031;-69
2022/05/09 05:33:21;;;;;;;7.38;1.80;;;;;;;9.44;77.57;101691.81;6270619;22;20065;-69
2022/05/09 05:36:28;;;;;;;7.47;1.67;;;;;;;9.58;77.21;101698.41;6271968;22;20554;-70
2022/05/09 05:39:36;;;;;;;4.30;1.75;;;;;;;9.80;77.26;101691.66;6269534;22;20030;-70
2022/05/09 05:42:43;;;;;;;6.35;1.70;;;;;;;9.94;77.28;101692.06;6269167;22;20103;-70
2022/05/09 05:46:13;;;;;;;5.07;1.52;;;;;;;10.05;76.66;101691.75;6269231;22;20026;-70
2022/05/09 05:49:18;;;;;;;5.57;2.10;;;;;;;10.01;77.22;101698.81;6269488;22;20046;-71
2022/05/09 05:53:58;;;;;;;5.45;1.58;;;;;;;10.15;77.75;101698.38;6271472;22;20085;-71
2022/05/09 05:57:07;;;;;;;7.15;2.15;;;;;;;10.29;77.03;101695.34;6211575;22;20051;-71
2022/05/09 06:00:21;;;;;;;8.27;3.22;;;;;;;10.40;77.05;101689.75;6234437;22;20067;-71
2022/05/09 06:03:28;;;;;;;6.05;1.42;;;;;;;10.57;77.29;101694.47;6270645;22;20041;-71
2022/05/09 06:06:35;;;;;;;6.35;1.95;;;;;;;10.67;77.39;101690.63;6254154;22;20347;-71
2022/05/09 06:09:46;;;;;;;7.65;1.80;;;;;;;10.75;78.05;101691.19;6270592;22;20027;-71
2022/05/09 06:12:54;;;;;;;5.32;1.42;;;;;;;10.80;78.41;101686.66;6270728;22;20030;-71
2022/05/09 06:20:48;;;;;;;6.18;1.67;;;;;;;11.04;77.33;101684.09;6247636;22;20026;-70
2022/05/09 06:23:52;;;;;;;5.68;1.88;;;;;;;11.16;77.57;101694.13;6272594;22;20584;-70
2022/05/09 06:26:56;;;;;;;3.47;1.73;;;;;;;11.29;76.82;101691.91;6271983;22;20026;-70
2022/05/09 06:30:14;;;;;;;6.00;1.80;;;;;;;11.35;77.03;101700.41;6270297;22;20765;-70
2022/05/09 06:33:33;;;;;;;6.15;2.30;;;;;;;11.52;76.49;101688.44;6271388;22;20058;-70
2022/05/09 06:36:40;;;;;;;7.90;2.40;;;;;;;11.64;76.65;101691.44;6252649;22;20046;-72
2022/05/09 06:40:00;;;;;;;9.57;2.13;;;;;;;11.76;76.73;101691.91;6270526;22;20027;-75
2022/05/09 06:43:23;;;;;;;11.75;2.65;;;;;;;11.96;77.29;101685.91;6269484;22;20086;-71
2022/05/09 06:46:29;;;;;;;4.95;1.90;;;;;;;12.07;76.80;101683.72;6251691;22;20023;-71
2022/05/09 06:53:55;;;;;;;9.63;2.05;;;;;;;12.30;72.34;101683.63;6270783;22;20327;-71
2022/05/09 06:57:59;;;;;;;6.03;2.30;;;;;;;12.37;70.69;101684.25;6269121;22;20023;-72
2022/05/09 07:01:19;;;;;;;5.93;1.90;;;;;;;12.53;70.52;101687.94;6270345;22;20027;-71
2022/05/09 07:04:27;;;;;;;9.05;2.75;;;;;;;12.65;69.79;101683.94;6264732;22;20099;-71
2022/05/09 07:07:31;;;;;;;9.02;2.22;;;;;;;12.77;68.56;101679.94;6269718;22;20046;-71
2022/05/09 07:10:35;;;;;;;7.85;2.28;;;;;;;12.86;68.32;101681.31;6269648;22;20026;-71
2022/05/09 07:13:41;;;;;;;5.80;1.90;;;;;;;12.94;66.54;101685.31;6270235;22;20107;-71
2022/05/09 07:16:46;;;;;;;7.10;2.17;;;;;;;13.04;66.70;101685.75;6252027;22;20089;-71
2022/05/09 07:19:50;;;;;;;7.47;1.95;;;;;;;13.10;66.99;101677.59;6268006;22;20026;-70
2022/05/09 07:23:03;;;;;;;6.57;2.10;;;;;;;13.11;66.08;101681.94;6249156;22;20023;-69
2022/05/09 07:26:08;;;;;;;6.05;2.20;;;;;;;13.13;66.01;101685.34;6269251;22;20406;-69
2022/05/09 07:29:12;;;;;;;9.27;2.70;;;;;;;13.14;65.99;101679.16;6270163;22;20027;-69
2022/05/09 07:32:16;;;;;;;6.88;2.47;;;;;;;13.22;66.44;101678.84;6267275;22;20022;-69
2022/05/09 07:35:22;;;;;;;10.93;2.70;;;;;;;13.37;66.21;101675.56;6249648;22;20046;-71
2022/05/09 07:38:27;;;;;;;6.32;2.72;;;;;;;13.56;65.68;101677.31;6269891;22;20026;-71
2022/05/09 07:41:34;;;;;;;10.05;2.72;;;;;;;13.71;64.85;101674.84;6268470;22;20039;-71
2022/05/09 07:49:37;;;;;;;7.63;2.40;;;;;;;13.90;65.33;101677.44;6275257;22;20082;-70
2022/05/09 08:02:40;;;;;;;4.80;2.22;;;;;;;14.30;63.52;101669.41;6274910;22;20027;-71
2022/05/09 08:05:44;;;;;;;10.30;3.10;;;;;;;14.38;63.64;101672.50;6275675;22;20073;-71
2022/05/09 08:08:49;;;;;;;8.85;2.22;;;;;;;14.45;63.49;101668.63;6277282;22;20100;-70
2022/05/09 08:11:54;;;;;;;11.30;2.72;;;;;;;14.65;63.23;101659.78;6276940;22;20026;-71
2022/05/09 08:14:58;;;;;;;11.20;3.13;;;;;;;14.80;62.17;101664.22;6276960;22;20453;-71
2022/05/09 08:18:09;;;;;;;10.23;2.83;;;;;;;15.07;62.00;101663.72;6276759;22;20097;-71
2022/05/09 08:21:14;;;;;;;7.82;3.08;;;;;;;15.07;61.26;101655.81;6277165;22;20108;-71
2022/05/09 08:24:19;;;;;;;11.55;2.42;;;;;;;15.11;61.19;101668.75;6277044;22;20027;-70
2022/05/09 08:27:24;;;;;;;9.93;3.30;;;;;;;15.18;61.67;101661.34;6276782;22;20042;-71
2022/05/09 08:30:35;;;;;;;6.18;2.50;;;;;;;15.22;62.01;101656.75;6276775;22;20081;-71
2022/05/09 08:33:39;;;;;;;8.48;2.45;;;;;;;15.31;62.43;101659.75;6258298;22;20123;-71
2022/05/09 08:36:49;;;;;;;9.65;2.42;;;;;;;15.51;60.84;101657.84;6276898;22;20069;-71
2022/05/09 08:39:53;;;;;;;8.82;2.80;;;;;;;15.71;60.35;101654.13;6276687;22;20026;-71
2022/05/09 08:43:05;;;;;;;10.00;2.40;;;;;;;15.75;60.43;101658.28;6276533;22;20097;-71
2022/05/09 08:46:18;;;;;;;10.68;2.80;;;;;;;15.76;60.20;101654.72;6276882;22;20099;-71
2022/05/09 08:50:15;;;;;;;7.25;2.50;;;;;;;15.88;60.44;101656.66;6275090;22;20081;-71
2022/05/09 08:53:24;;;;;;;7.57;2.67;;;;;;;16.17;59.92;101649.72;6276357;22;20034;-71
2022/05/09 08:56:30;;;;;;;8.52;2.40;;;;;;;16.14;59.76;101649.03;6270366;22;20109;-71
2022/05/09 08:59:48;;;;;;;7.57;2.42;;;;;;;16.27;60.30;101645.63;6271925;22;20533;-71
2022/05/09 09:02:55;;;;;;;10.15;2.70;;;;;;;16.30;59.39;101647.22;6271155;22;20149;-71
2022/05/09 09:06:36;;;;;;;9.40;2.85;;;;;;;16.39;59.37;101644.03;6271060;22;20076;-70
2022/05/09 09:09:46;;;;;;;11.63;2.95;;;;;;;16.38;58.98;101647.63;6269697;22;20069;-71
2022/05/09 09:13:00;;;;;;;5.63;2.25;;;;;;;16.36;58.65;101641.56;6250764;22;20027;-71
2022/05/09 09:16:29;;;;;;;6.15;2.60;;;;;;;16.62;60.14;101633.91;6271170;22;20050;-71
2022/05/09 09:19:51;;;;;;;7.78;2.78;;;;;;;16.68;58.82;101629.09;6272053;22;20030;-71
2022/05/09 09:23:18;;;;;;;7.68;2.58;;;;;;;16.65;58.82;101631.06;6272472;22;20082;-71
2022/05/09 09:26:43;;;;;;;9.80;3.00;;;;;;;16.68;58.94;101618.53;6269617;22;20034;-71
2022/05/09 09:29:55;;;;;;;7.00;2.47;;;;;;;16.80;59.29;101624.91;6271714;22;20097;-71
2022/05/09 09:33:05;;;;;;;7.50;2.22;;;;;;;17.00;58.61;101613.09;6271529;22;20046;-71
2022/05/09 09:36:14;;;;;;;8.10;2.60;;;;;;;16.96;58.06;101616.88;6270970;22;20022;-71
2022/05/09 09:39:19;;;;;;;8.27;2.22;;;;;;;17.17;59.51;101609.44;6270740;22;20051;-71
2022/05/09 09:42:23;;;;;;;6.95;2.72;;;;;;;17.53;58.33;101602.75;6271330;22;20026;-71
2022/05/09 09:45:40;;;;;;;9.13;3.65;;;;;;;17.61;59.04;101600.44;6252021;22;20022;-71
2022/05/09 09:48:44;;;;;;;9.70;2.75;;;;;;;17.75;57.88;101603.06;6271564;22;20019;-71
2022/05/09 09:51:49;;;;;;;7.25;2.63;;;;;;;17.81;57.18;101597.41;6271373;22;20043;-71
2022/05/09 09:55:00;;;;;;;10.00;2.88;;;;;;;17.93;57.61;101598.38;6268731;22;20195;-71
2022/05/09 09:58:29;;;;;;;7.47;2.55;;;;;;;18.18;58.10;101596.72;6270322;22;20062;-70
2022/05/09 10:01:36;;;;;;;10.45;2.40;;;;;;;18.23;57.14;101584.91;6269679;22;20027;-71
2022/05/09 10:04:40;;;;;;;12.02;4.18;;;;;;;18.26;57.29;101589.97;6269566;22;20477;-71
2022/05/09 10:07:44;;;;;;;8.63;2.95;;;;;;;18.28;57.14;101576.63;6268984;22;20027;-70
2022/05/09 10:10:55;;;;;;;13.05;2.90;;;;;;;18.32;58.27;101581.63;6270733;22;20080;-71
2022/05/09 10:14:03;;;;;;;11.45;3.30;;;;;;;18.59;57.59;101585.97;6271357;22;20096;-71
2022/05/09 10:17:21;;;;;;;20.27;5.13;;;;;;;18.59;57.83;101578.03;6270413;22;20286;-71
2022/05/09 10:20:39;;;;;;;11.23;3.08;;;;;;;18.59;56.96;101570.06;6270440;22;20092;-71
2022/05/09 10:27:27;;;;;;;9.30;3.17;;;;;;;18.96;56.98;101557.78;6270069;22;20054;-71
2022/05/09 10:30:34;;;;;;;10.77;2.72;;;;;;;18.84;56.62;101557.81;6269045;22;20454;-71
2022/05/09 10:33:50;;;;;;;7.20;2.78;;;;;;;19.14;55.32;101550.28;6269054;22;20077;-71
2022/05/09 10:37:14;;;;;;;6.07;3.08;;;;;;;19.45;55.97;101540.13;6268163;22;20042;-71
2022/05/09 10:40:28;;;;;;;5.70;2.78;;;;;;;19.53;53.80;101543.06;6269573;22;20050;-71
2022/05/09 10:43:56;;;;;;;9.90;2.83;;;;;;;19.39;54.95;101524.66;6270057;22;20394;-71
2022/05/09 10:47:36;;;;;;;6.40;3.00;;;;;;;19.85;53.62;101529.25;6270374;22;20069;-71
2022/05/09 10:54:48;;;;;;;;;;;;;;;19.82;54.70;101518.84;6240123;23;20103;-71
2022/05/09 10:58:05;;;;;;;7.20;2.63;;;;;;;19.83;53.07;101513.41;6238571;23;19918;-71
2022/05/09 11:01:34;;;;;;;5.93;2.72;;;;;;;19.67;53.67;101512.88;6243307;23;20075;-71
2022/05/09 11:04:40;;;;;;;6.95;2.65;;;;;;;19.57;53.99;101504.72;6244107;23;20508;-71
2022/05/09 11:08:17;;;;;;;8.52;3.17;;;;;;;19.56;52.76;101495.09;6244592;23;20081;-71
2022/05/09 11:11:32;;;;;;;7.53;2.70;;;;;;;20.24;49.85;101503.25;6230974;23;20035;-71
2022/05/09 11:14:49;;;;;;;7.78;2.50;;;;;;;20.16;48.74;101485.25;6244860;23;20103;-71
2022/05/09 11:17:53;;;;;;;5.93;2.38;;;;;;;20.01;50.40;101484.63;6244872;23;20031;-71
2022/05/09 11:21:31;;;;;;;5.57;2.67;;;;;;;20.04;52.70;101480.88;6244770;23;20154;-71
2022/05/09 11:24:59;;;;;;;6.53;3.13;;;;;;;20.17;51.55;101477.16;6244551;23;20444;-71
2022/05/09 11:28:09;;;;;;;8.48;2.60;;;;;;;20.67;50.36;101488.28;6244317;22;20089;-78
2022/05/09 11:31:31;;;;;;;6.03;2.70;;;;;;;20.31;48.90;101470.78;6244843;23;20026;-71
2022/05/09 11:35:13;;;;;;;7.72;2.97;;;;;;;20.15;49.45;101463.16;6246946;23;20030;-72
2022/05/09 11:38:40;;;;;;;5.97;2.60;;;;;;;20.11;49.24;101467.03;6246811;23;20099;-72
2022/05/09 11:43:27;;;;;;;5.63;2.63;;;;;;;20.33;48.63;101462.69;6246936;23;20027;-72
2022/05/09 11:46:13;;;;;;;8.57;2.63;;;;;;;20.78;48.92;101457.38;6245501;23;20027;-71
2022/05/09 11:49:32;;;;;;;5.38;2.38;;;;;;;20.81;47.55;101449.16;6247227;23;20049;-71
2022/05/09 11:52:44;;;;;;;6.35;2.58;;;;;;;20.66;47.76;101446.75;6246521;23;20108;-71
2022/05/09 11:55:49;;;;;;;6.97;2.47;;;;;;;20.59;48.04;101445.56;6246747;23;20023;-71
2022/05/09 11:58:53;;;;;;;6.32;2.72;;;;;;;20.98;49.45;101440.66;6246804;23;20022;-71
2022/05/09 12:02:14;;;;;;;7.10;2.58;;;;;;;21.13;48.26;101434.06;6245614;23;20051;-74
2022/05/09 12:05:38;;;;;;;3.55;1.90;;;;;;;21.26;47.05;101427.75;6246690;23;20027;-70
2022/05/09 12:08:44;;;;;;;9.35;2.65;;;;;;;21.50;47.40;101419.53;6246524;23;20019;-70
2022/05/09 12:11:50;;;;;;;5.88;2.15;;;;;;;21.68;46.41;101428.63;6246617;23;20027;-70
2022/05/09 12:14:55;;;;;;;6.97;2.83;;;;;;;21.62;47.10;101428.31;6246575;23;20028;-74
2022/05/09 12:18:04;;;;;;;5.75;2.50;;;;;;;21.79;46.77;101430.38;6246427;23;20454;-75
2022/05/09 12:21:17;;;;;;;4.40;2.08;;;;;;;21.44;45.74;101436.88;6246717;23;20026;-79
2022/05/09 12:24:24;;;;;;;7.20;2.72;;;;;;;21.61;45.59;101429.28;6246412;23;20038;-74
2022/05/09 12:28:19;;;;;;;4.63;2.38;;;;;;;21.79;44.44;101414.41;6227642;22;20109;-75
2022/05/09 12:31:32;;;;;;;5.85;2.40;;;;;;;22.16;42.72;101411.25;6246454;23;20023;-75
2022/05/09 12:34:41;;;;;;;6.13;2.55;;;;;;;22.41;42.69;101401.97;6246253;23;20095;-75
2022/05/09 12:37:46;;;;;;;6.97;2.30;;;;;;;22.35;42.58;101406.00;6246030;23;20023;-75
2022/05/09 12:41:04;;;;;;;4.75;2.03;;;;;;;22.72;40.71;101394.75;6246132;23;20023;-74
2022/05/09 12:44:15;;;;;;;7.03;2.25;;;;;;;23.21;39.75;101393.81;6245971;23;20078;-74
2022/05/09 12:47:25;;;;;;;4.85;1.90;;;;;;;23.74;39.26;101395.19;6246244;23;20019;-74
2022/05/09 12:50:35;;;;;;;5.93;2.10;;;;;;;23.50;38.46;101392.09;6245993;23;20081;-74
2022/05/09 12:53:41;;;;;;;6.18;2.47;;;;;;;23.86;38.11;101387.81;6245981;23;20039;-74
2022/05/09 12:56:55;;;;;;;3.70;2.08;;;;;;;23.63;37.87;101384.63;6243358;23;20138;-74
2022/05/09 13:00:08;;;;;;;4.25;1.92;;;;;;;24.26;37.53;101389.34;6243726;23;20023;-74
2022/05/09 13:03:13;;;;;;;5.68;2.10;;;;;;;23.82;37.01;101373.06;6245598;23;20117;-74
2022/05/09 13:06:24;;;;;;;5.68;1.95;;;;;;;24.28;35.92;101371.31;6245472;23;20038;-74
2022/05/09 13:09:34;;;;;;;3.67;2.08;;;;;;;24.75;35.22;101374.69;6227204;23;20314;-74
2022/05/09 13:12:44;;;;;;;3.90;1.98;;;;;;;24.71;35.58;101373.34;6245298;23;20113;-74
2022/05/09 13:15:49;;;;;;;5.35;1.88;;;;;;;24.45;35.94;101377.75;6245910;23;20038;-74
2022/05/09 13:18:55;;;;;;;6.88;1.73;;;;;;;23.85;36.75;101370.94;6245757;23;20027;-74
2022/05/09 13:22:04;;;;;;;10.00;2.03;;;;;;;23.86;36.60;101361.94;6245922;23;20023;-74
2022/05/09 13:25:17;;;;;;;6.75;1.80;;;;;;;24.87;35.21;101356.59;6245803;23;20023;-74
2022/05/09 13:28:24;;;;;;;4.65;1.92;;;;;;;24.47;34.16;101360.53;6245560;22;20446;-74
2022/05/09 13:31:42;;;;;;;4.97;2.33;;;;;;;25.11;33.28;101342.63;6243741;23;20107;-74
2022/05/09 13:34:52;;;;;;;2.88;1.55;;;;;;;25.85;33.08;101345.81;6244400;23;20023;-74
2022/05/09 13:38:31;;;;;;;3.80;1.92;;;;;;;26.81;31.96;101340.91;6244947;23;20023;-74
2022/05/09 13:41:42;;;;;;;5.65;1.98;;;;;;;27.31;30.56;101333.69;6245217;23;20038;-74
2022/05/09 13:44:49;;;;;;;;;;;;;;;26.37;32.13;101334.94;6246035;23;20023;-74
2022/05/09 13:48:06;;;;;;;3.88;1.73;;;;;;;26.88;30.93;101331.19;6245387;23;20373;-74
2022/05/09 13:51:13;;;;;;;4.53;1.85;;;;;;;29.07;26.30;101318.06;6245296;23;20474;-74
2022/05/09 13:54:28;;;;;;;4.35;2.00;;;;;;;29.97;26.69;101314.44;6245070;23;20069;-74
2022/05/09 13:57:37;;;;;;;5.75;2.47;;;;;;;32.01;22.92;101302.91;6244725;23;20074;-75
2022/05/09 14:00:45;;;;;;;4.25;1.95;;;;;;;32.33;21.48;101297.78;6244454;23;20030;-75
2022/05/09 14:03:55;;;;;;;4.32;2.13;;;;;;;32.89;20.79;101294.72;6242392;23;20454;-75
2022/05/09 14:07:37;;;;;;;4.60;2.20;;;;;;;33.09;20.72;101292.88;6243531;23;20023;-75
2022/05/09 14:10:30;;;;;;;3.85;2.13;;;;;;;32.92;20.36;101297.00;6244782;23;20078;-75
2022/05/09 14:13:49;;;;;;;6.03;1.88;;;;;;;33.79;19.43;101285.00;6244852;23;20077;-75
2022/05/09 14:17:00;;;;;;;5.72;1.70;;;;;;;34.00;19.54;101291.97;6244202;23;20343;-75
2022/05/09 14:20:07;;;;;;;3.17;1.95;;;;;;;35.24;18.00;101273.34;6244143;23;20470;-75
2022/05/09 14:23:19;;;;;;;4.32;1.85;;;;;;;35.80;17.75;101271.44;6245619;23;20074;-75
2022/05/09 14:29:50;;;;;;;3.58;2.30;;;;;;;34.95;17.94;101267.53;6245571;23;20086;-75
2022/05/09 14:32:56;;;;;;;5.22;2.15;;;;;;;35.69;17.33;101264.91;6244868;23;20086;-75
2022/05/09 14:36:01;;;;;;;3.63;2.00;;;;;;;35.99;17.04;101258.63;6244766;23;20336;-75
2022/05/09 14:39:39;;;;;;;3.40;1.75;;;;;;;35.56;17.73;101259.63;6243912;23;20042;-76
2022/05/09 14:42:52;;;;;;;4.25;1.60;;;;;;;28.30;25.90;101259.75;6242755;23;20114;-75
2022/05/09 14:46:06;;;;;;;3.53;1.30;;;;;;;26.70;28.55;101265.28;6244142;23;20026;-75
2022/05/09 14:49:16;;;;;;;3.90;1.77;;;;;;;26.67;28.98;101267.31;6244875;23;20019;-75
2022/05/09 14:52:36;;;;;;;4.15;1.98;;;;;;;30.55;24.24;101255.94;6243531;23;20043;-75
2022/05/09 14:59:21;;;;;;;4.05;1.73;;;;;;;30.38;23.28;101249.13;6244897;23;20158;-75
2022/05/09 15:02:30;;;;;;;2.58;1.42;;;;;;;28.39;25.96;101252.47;6244237;23;20027;-75
2022/05/09 15:05:36;;;;;;;3.15;1.38;;;;;;;27.03;27.84;101264.28;6244741;23;20026;-74
2022/05/09 15:08:42;;;;;;;4.45;1.80;;;;;;;25.79;32.24;101272.25;6224849;23;20486;-75
2022/05/09 15:11:47;;;;;;;7.22;1.75;;;;;;;27.06;30.86;101265.78;6225935;23;20485;-75
2022/05/09 15:14:51;;;;;;;4.32;2.00;;;;;;;31.85;24.67;101257.25;6244546;23;20026;-75
2022/05/09 15:17:56;;;;;;;4.80;2.17;;;;;;;34.86;19.46;101244.41;6243856;23;20023;-75
2022/05/09 15:21:02;;;;;;;4.55;1.95;;;;;;;34.00;21.20;101245.03;6244107;23;20139;-80
2022/05/09 15:24:07;;;;;;;4.68;1.90;;;;;;;34.86;19.63;101239.00;6245035;23;20058;-75
2022/05/09 15:33:12;;;;;;;8.38;1.95;;;;;;;34.80;19.07;101229.00;6254747;23;20046;-76
2022/05/09 15:36:19;;;;;;;5.40;2.00;;;;;;;35.84;18.51;101226.41;6226714;23;20027;-76
2022/05/09 15:39:22;;;;;;;3.65;1.70;;;;;;;32.96;19.69;101227.84;6244653;23;20027;-74